Terminal Aerodrome Forecast
Issued by NWS Mt. Holly, NJ

Home | Current Version | Previous Version | Text Only | Print | Product List | Glossary On
Versions: 1 2 3 4 5 6 7 8 9 10 11 12
000
FTUS41 KPHI 041731
TAFRDG
TAF
KRDG 041731Z 0418/0518 22012G20KT P6SM FEW080
     FM042300 20007KT P6SM SKC
     FM051000 26004KT P6SM SCT050 BKN120
     FM051600 29008KT P6SM -SHRA SCT035 BKN070=

USA.gov is the U.S. government's official web portal to all federal, state and local government web resources and services.